Time;durP1;ratioP1;P1;durP2;ratioP2;P2;SDS_P1;SDS_P2;PMS_P1;PMS_P2;Temp;Humidity;BMP_temperature;BMP_pressure;BME280_temperature;BME280_humidity;BME280_pressure;Samples;Min_cycle;Max_cycle;Signal;HPM_P1;HPM_P2
2023/05/01 00:02:16;;;;;;;4.77;1.93;;;;;;;;;;5067113;28;20478;-79
2023/05/01 00:04:42;;;;;;;5.07;1.80;;;;;;;;;;5069324;28;20266;-79
2023/05/01 00:07:07;;;;;;;5.38;1.60;;;;;;;;;;5066659;28;20762;-79
2023/05/01 00:09:33;;;;;;;4.00;1.67;;;;;;;;;;5065683;28;20021;-79
2023/05/01 00:11:58;;;;;;;4.63;2.00;;;;;;;;;;5067389;28;20100;-79
2023/05/01 00:14:23;;;;;;;6.75;1.70;;;;;;;;;;5067734;28;20035;-79
2023/05/01 00:16:49;;;;;;;7.22;1.65;;;;;;;;;;5068478;28;20020;-80
2023/05/01 00:19:17;;;;;;;4.85;1.67;;;;;;;;;;5069282;28;20040;-80
2023/05/01 00:21:44;;;;;;;4.43;1.42;;;;;;;;;;5066624;28;20108;-80
2023/05/01 00:24:10;;;;;;;7.10;1.88;;;;;;;;;;5068597;28;20033;-80
2023/05/01 00:26:35;;;;;;;6.15;1.40;;;;;;;;;;5062293;28;20109;-80
2023/05/01 00:29:01;;;;;;;7.38;1.90;;;;;;;;;;5066846;28;20028;-79
2023/05/01 00:31:26;;;;;;;6.43;2.10;;;;;;;;;;5068987;28;20016;-80
2023/05/01 00:33:51;;;;;;;2.33;1.33;;;;;;;;;;5068797;28;20074;-80
2023/05/01 00:36:16;;;;;;;5.32;2.08;;;;;;;;;;5071655;28;20378;-80
2023/05/01 00:38:41;;;;;;;5.50;2.53;;;;;;;;;;5067235;28;20047;-80
2023/05/01 00:41:07;;;;;;;4.47;1.50;;;;;;;;;;5065666;28;20589;-80
2023/05/01 00:43:32;;;;;;;4.15;1.67;;;;;;;;;;5063808;28;20273;-80
2023/05/01 00:45:57;;;;;;;6.60;1.52;;;;;;;;;;5064602;28;20054;-80
2023/05/01 00:48:23;;;;;;;5.43;1.45;;;;;;;;;;5052329;28;20035;-80
2023/05/01 00:50:48;;;;;;;4.68;1.80;;;;;;;;;;5055290;28;20028;-80
2023/05/01 00:53:14;;;;;;;4.85;1.67;;;;;;;;;;5067261;28;20017;-79
2023/05/01 00:55:40;;;;;;;6.57;1.70;;;;;;;;;;5067682;28;20024;-79
2023/05/01 00:58:06;;;;;;;3.70;1.38;;;;;;;;;;5067104;28;20162;-80
2023/05/01 01:00:31;;;;;;;5.63;2.20;;;;;;;;;;5069215;28;20522;-79
2023/05/01 01:02:56;;;;;;;2.40;1.70;;;;;;;;;;5063055;28;20024;-80
2023/05/01 01:05:24;;;;;;;4.15;1.42;;;;;;;;;;5071637;28;20261;-79
2023/05/01 01:08:03;;;;;;;10.02;2.05;;;;;;;;;;5069667;28;20016;-79
2023/05/01 01:10:47;;;;;;;5.45;1.73;;;;;;;;;;5074200;28;20035;-80
2023/05/01 01:13:15;;;;;;;3.50;1.23;;;;;;;;;;5069007;28;20035;-80
2023/05/01 01:15:41;;;;;;;5.40;1.70;;;;;;;;;;5071582;28;20138;-80
2023/05/01 01:18:09;;;;;;;2.92;1.67;;;;;;;;;;5069601;28;20474;-80
2023/05/01 01:20:37;;;;;;;5.47;1.73;;;;;;;;;;5074303;28;20067;-80
2023/05/01 01:23:20;;;;;;;5.78;1.55;;;;;;;;;;5066741;28;20032;-80
2023/05/01 01:26:06;;;;;;;6.80;1.80;;;;;;;;;;5071263;28;20098;-80
2023/05/01 01:28:50;;;;;;;4.95;1.30;;;;;;;;;;5072338;28;20044;-80
2023/05/01 01:31:19;;;;;;;3.55;1.42;;;;;;;;;;5064949;28;20479;-80
2023/05/01 01:33:44;;;;;;;5.18;1.52;;;;;;;;;;5061889;28;20051;-80
2023/05/01 01:36:10;;;;;;;7.33;1.80;;;;;;;;;;5054250;28;20068;-80
2023/05/01 01:38:44;;;;;;;6.07;1.70;;;;;;;;;;5055230;28;20021;-80
2023/05/01 01:41:16;;;;;;;5.28;1.60;;;;;;;;;;5071969;28;20024;-80
2023/05/01 01:43:44;;;;;;;4.63;1.55;;;;;;;;;;5064370;28;20032;-80
2023/05/01 01:46:10;;;;;;;3.97;1.52;;;;;;;;;;5067707;28;20021;-80
2023/05/01 01:48:40;;;;;;;3.65;1.45;;;;;;;;;;5063669;28;20470;-80
2023/05/01 01:51:07;;;;;;;3.97;1.55;;;;;;;;;;5071962;28;20028;-80
2023/05/01 01:53:34;;;;;;;4.95;1.50;;;;;;;;;;5067224;28;20024;-80
2023/05/01 01:56:01;;;;;;;5.70;1.73;;;;;;;;;;5059772;28;20352;-80
2023/05/01 01:58:27;;;;;;;4.32;1.33;;;;;;;;;;5054414;28;20021;-80
2023/05/01 02:00:54;;;;;;;3.28;1.60;;;;;;;;;;5047526;28;20075;-80
2023/05/01 02:03:20;;;;;;;4.30;1.60;;;;;;;;;;5060233;28;20493;-80
2023/05/01 02:05:46;;;;;;;6.63;1.55;;;;;;;;;;5068478;28;20032;-80
2023/05/01 02:08:12;;;;;;;8.18;1.77;;;;;;;;;;5049043;28;20028;-80
2023/05/01 02:10:39;;;;;;;3.97;1.58;;;;;;;;;;5072553;28;20059;-80
2023/05/01 02:13:04;;;;;;;5.68;1.67;;;;;;;;;;5071411;28;20283;-80
2023/05/01 02:15:30;;;;;;;6.05;1.75;;;;;;;;;;5044597;28;20194;-80
2023/05/01 02:17:56;;;;;;;6.03;1.80;;;;;;;;;;5071269;28;20386;-80
2023/05/01 02:20:22;;;;;;;5.63;2.30;;;;;;;;;;5069615;28;20021;-80
2023/05/01 02:22:47;;;;;;;5.90;1.83;;;;;;;;;;5054786;28;20052;-80
2023/05/01 02:25:13;;;;;;;4.57;1.25;;;;;;;;;;5068094;28;20024;-80
2023/05/01 02:27:59;;;;;;;10.35;2.38;;;;;;;;;;5072023;28;20546;-80
2023/05/01 02:30:24;;;;;;;5.47;1.35;;;;;;;;;;5054053;28;20112;-80
2023/05/01 02:32:50;;;;;;;3.55;1.27;;;;;;;;;;5072692;28;20490;-80
2023/05/01 02:35:16;;;;;;;4.95;1.65;;;;;;;;;;5053582;28;20414;-80
2023/05/01 02:37:41;;;;;;;7.10;1.88;;;;;;;;;;5072979;28;20029;-80
2023/05/01 02:40:07;;;;;;;6.38;1.50;;;;;;;;;;5068939;28;20099;-80
2023/05/01 02:42:34;;;;;;;6.07;1.50;;;;;;;;;;5068441;28;20064;-80
2023/05/01 02:45:01;;;;;;;4.22;1.58;;;;;;;;;;5054242;28;20377;-80
2023/05/01 02:47:27;;;;;;;8.18;2.58;;;;;;;;;;5069398;28;20024;-80
2023/05/01 02:49:53;;;;;;;3.92;1.40;;;;;;;;;;5065677;28;20020;-80
2023/05/01 02:52:18;;;;;;;3.15;1.40;;;;;;;;;;5062824;28;20029;-80
2023/05/01 02:54:44;;;;;;;4.95;2.28;;;;;;;;;;5071239;28;20021;-80
2023/05/01 02:57:10;;;;;;;5.50;1.50;;;;;;;;;;5069484;28;20471;-80
2023/05/01 02:59:35;;;;;;;6.65;1.83;;;;;;;;;;5068182;28;20035;-80
2023/05/01 03:02:00;;;;;;;4.30;1.20;;;;;;;;;;5058122;28;20564;-80
2023/05/01 03:04:26;;;;;;;5.30;1.52;;;;;;;;;;5064697;28;20269;-80
2023/05/01 03:06:51;;;;;;;5.43;1.60;;;;;;;;;;5070260;28;20021;-80
2023/05/01 03:09:16;;;;;;;2.13;1.30;;;;;;;;;;5071134;28;20021;-80
2023/05/01 03:11:41;;;;;;;5.53;1.20;;;;;;;;;;5071836;28;20524;-80
2023/05/01 03:14:07;;;;;;;8.88;1.85;;;;;;;;;;5064055;28;20706;-80
2023/05/01 03:16:32;;;;;;;5.13;1.85;;;;;;;;;;5068411;28;20021;-80
2023/05/01 03:18:58;;;;;;;4.07;1.48;;;;;;;;;;5068272;28;20107;-80
2023/05/01 03:21:23;;;;;;;4.88;1.50;;;;;;;;;;5071707;28;20013;-80
2023/05/01 03:23:48;;;;;;;3.83;1.30;;;;;;;;;;5052091;28;20037;-80
2023/05/01 03:26:13;;;;;;;7.40;1.70;;;;;;;;;;5072052;28;20380;-80
2023/05/01 03:28:39;;;;;;;5.13;1.27;;;;;;;;;;5068128;28;20048;-80
2023/05/01 03:31:04;;;;;;;8.30;2.38;;;;;;;;;;5057330;28;20308;-80
2023/05/01 03:33:30;;;;;;;3.53;1.37;;;;;;;;;;5067461;28;20020;-80
2023/05/01 03:36:02;;;;;;;4.90;1.38;;;;;;;;;;5072618;28;20326;-80
2023/05/01 03:38:28;;;;;;;3.80;2.00;;;;;;;;;;5066780;28;20039;-80
2023/05/01 03:40:53;;;;;;;5.90;1.67;;;;;;;;;;5069688;28;20371;-80
2023/05/01 03:43:19;;;;;;;6.30;1.87;;;;;;;;;;5063563;28;20041;-80
2023/05/01 03:45:44;;;;;;;4.57;1.58;;;;;;;;;;5068025;28;20273;-80
2023/05/01 03:48:10;;;;;;;5.90;1.75;;;;;;;;;;5044848;28;20252;-80
2023/05/01 03:50:35;;;;;;;2.93;1.30;;;;;;;;;;5034354;28;20051;-80
2023/05/01 03:53:00;;;;;;;4.32;1.50;;;;;;;;;;5061600;28;20273;-80
2023/05/01 03:55:26;;;;;;;5.72;1.70;;;;;;;;;;5071131;28;20478;-80
2023/05/01 03:57:51;;;;;;;3.47;1.27;;;;;;;;;;5069111;28;20052;-80
2023/05/01 04:00:16;;;;;;;4.30;1.40;;;;;;;;;;5070862;28;20024;-80
2023/05/01 04:02:42;;;;;;;5.00;1.45;;;;;;;;;;5064030;28;20309;-79
2023/05/01 04:05:08;;;;;;;2.53;1.50;;;;;;;;;;5071460;28;20378;-80
2023/05/01 04:07:33;;;;;;;6.32;1.80;;;;;;;;;;5069090;28;20770;-80
2023/05/01 04:09:58;;;;;;;10.03;2.47;;;;;;;;;;5068664;28;20012;-80
2023/05/01 04:12:23;;;;;;;4.00;1.93;;;;;;;;;;5047824;28;20282;-80
2023/05/01 04:14:48;;;;;;;9.13;2.10;;;;;;;;;;5070475;28;20265;-79
2023/05/01 04:17:14;;;;;;;4.43;1.77;;;;;;;;;;5069767;28;20269;-80
2023/05/01 04:19:40;;;;;;;5.35;2.50;;;;;;;;;;5070932;28;20319;-80
2023/05/01 04:22:05;;;;;;;7.03;2.97;;;;;;;;;;5065463;28;20108;-80
2023/05/01 04:24:30;;;;;;;4.50;2.17;;;;;;;;;;5068964;28;20151;-80
2023/05/01 04:26:55;;;;;;;5.35;1.73;;;;;;;;;;5070533;28;20024;-80
2023/05/01 04:29:20;;;;;;;8.43;2.10;;;;;;;;;;5070200;28;20432;-80
2023/05/01 04:31:46;;;;;;;7.18;1.77;;;;;;;;;;5057543;28;20752;-80
2023/05/01 04:34:11;;;;;;;6.50;1.90;;;;;;;;;;5064419;28;20040;-80
2023/05/01 04:36:36;;;;;;;7.68;2.17;;;;;;;;;;5070507;28;20284;-80
2023/05/01 04:39:02;;;;;;;5.57;2.30;;;;;;;;;;5070716;28;20017;-79
2023/05/01 04:41:28;;;;;;;7.18;2.40;;;;;;;;;;5064204;28;20027;-80
2023/05/01 04:43:53;;;;;;;10.05;2.28;;;;;;;;;;5060907;28;20027;-79
2023/05/01 04:46:18;;;;;;;10.07;1.97;;;;;;;;;;5068033;28;20095;-79
2023/05/01 04:48:43;;;;;;;3.07;1.43;;;;;;;;;;5069602;28;20023;-79
2023/05/01 04:51:08;;;;;;;4.93;1.63;;;;;;;;;;5062930;28;20272;-79
2023/05/01 04:53:34;;;;;;;10.97;2.27;;;;;;;;;;5069213;28;20619;-79
2023/05/01 04:55:59;;;;;;;8.33;1.80;;;;;;;;;;5068062;28;20766;-79
2023/05/01 04:58:24;;;;;;;5.07;1.47;;;;;;;;;;5066394;28;20777;-79
2023/05/01 05:00:49;;;;;;;9.60;2.00;;;;;;;;;;5068252;28;20753;-80
2023/05/01 05:03:17;;;;;;;6.23;1.90;;;;;;;;;;5068061;28;20079;-79
2023/05/01 05:05:42;;;;;;;7.32;2.13;;;;;;;;;;5057392;28;20285;-79
2023/05/01 05:08:08;;;;;;;7.60;1.95;;;;;;;;;;5049257;28;20048;-79
2023/05/01 05:10:33;;;;;;;8.98;1.98;;;;;;;;;;5068760;28;20024;-79
2023/05/01 05:12:58;;;;;;;7.70;1.85;;;;;;;;;;5051008;28;20016;-79
2023/05/01 05:15:23;;;;;;;5.07;1.67;;;;;;;;;;5065206;28;20017;-79
2023/05/01 05:17:49;;;;;;;6.07;2.10;;;;;;;;;;5067854;28;20036;-80
2023/05/01 05:20:14;;;;;;;7.20;1.83;;;;;;;;;;5069944;28;20667;-80
2023/05/01 05:22:39;;;;;;;4.40;1.65;;;;;;;;;;5064755;28;20047;-80
2023/05/01 05:25:05;;;;;;;5.63;2.30;;;;;;;;;;5067542;28;20028;-79
2023/05/01 05:27:35;;;;;;;8.80;1.98;;;;;;;;;;5053659;28;20669;-79
2023/05/01 05:30:00;;;;;;;10.57;1.80;;;;;;;;;;5067261;28;20020;-80
2023/05/01 05:32:25;;;;;;;7.72;2.05;;;;;;;;;;5049359;28;20016;-79
2023/05/01 05:34:51;;;;;;;3.77;1.60;;;;;;;;;;5051202;28;20032;-79
2023/05/01 05:37:16;;;;;;;8.80;1.92;;;;;;;;;;5071001;28;20264;-79
2023/05/01 05:39:41;;;;;;;10.53;2.00;;;;;;;;;;5064635;28;20377;-80
2023/05/01 05:42:07;;;;;;;7.60;1.63;;;;;;;;;;5066847;28;20277;-79
2023/05/01 05:44:34;;;;;;;9.32;2.05;;;;;;;;;;5050721;28;20813;-79
2023/05/01 05:47:00;;;;;;;5.50;1.98;;;;;;;;;;5047568;28;20025;-80
2023/05/01 05:49:25;;;;;;;3.95;1.70;;;;;;;;;;5060145;28;20021;-79
2023/05/01 05:51:50;;;;;;;4.47;1.50;;;;;;;;;;5068184;28;20043;-80
2023/05/01 05:54:15;;;;;;;6.20;1.65;;;;;;;;;;5069729;28;20500;-80
2023/05/01 05:56:41;;;;;;;5.88;1.63;;;;;;;;;;5071660;28;20032;-80
2023/05/01 05:59:07;;;;;;;3.75;1.23;;;;;;;;;;5073420;28;20017;-80
2023/05/01 06:01:32;;;;;;;2.33;0.98;;;;;;;;;;5068438;28;20028;-80
2023/05/01 06:03:57;;;;;;;3.97;1.73;;;;;;;;;;5072715;28;20029;-80
2023/05/01 06:06:23;;;;;;;4.50;1.70;;;;;;;;;;5054266;28;20030;-80
2023/05/01 06:08:48;;;;;;;4.65;1.48;;;;;;;;;;5071344;28;20344;-80
2023/05/01 06:11:13;;;;;;;4.80;1.53;;;;;;;;;;5072298;28;20020;-79
2023/05/01 06:13:38;;;;;;;3.33;1.40;;;;;;;;;;5073192;28;20273;-79
2023/05/01 06:16:06;;;;;;;3.60;1.40;;;;;;;;;;5074288;28;20284;-80
2023/05/01 06:18:31;;;;;;;6.32;2.28;;;;;;;;;;5065788;28;20257;-80
2023/05/01 06:20:57;;;;;;;5.15;1.50;;;;;;;;;;5071230;28;20161;-80
2023/05/01 06:23:22;;;;;;;2.13;1.10;;;;;;;;;;5071977;28;20039;-80
2023/05/01 06:25:48;;;;;;;4.57;2.08;;;;;;;;;;5070594;28;20023;-79
2023/05/01 06:28:13;;;;;;;6.15;1.60;;;;;;;;;;5071168;28;20604;-79
2023/05/01 06:30:38;;;;;;;3.10;1.65;;;;;;;;;;5071135;28;20067;-80
2023/05/01 06:33:04;;;;;;;6.27;2.40;;;;;;;;;;5052290;28;20028;-79
2023/05/01 06:35:29;;;;;;;3.80;1.70;;;;;;;;;;5069317;28;20719;-79
2023/05/01 06:37:54;;;;;;;1.92;1.00;;;;;;;;;;5073947;28;20387;-79
2023/05/01 06:40:20;;;;;;;3.33;1.20;;;;;;;;;;5067653;28;20020;-80
2023/05/01 06:42:45;;;;;;;4.50;1.60;;;;;;;;;;5067675;28;20036;-80
2023/05/01 06:45:10;;;;;;;2.03;1.30;;;;;;;;;;5066731;28;20020;-79
2023/05/01 06:47:35;;;;;;;7.40;1.80;;;;;;;;;;5070120;28;20273;-79
2023/05/01 06:50:01;;;;;;;5.03;1.80;;;;;;;;;;5059600;28;20280;-79
2023/05/01 06:52:26;;;;;;;4.57;1.50;;;;;;;;;;5066663;28;20353;-79
2023/05/01 06:54:51;;;;;;;3.97;1.50;;;;;;;;;;5070706;28;20522;-79
2023/05/01 06:57:17;;;;;;;4.47;1.43;;;;;;;;;;5071350;28;20272;-79
2023/05/01 06:59:42;;;;;;;4.57;1.40;;;;;;;;;;5066304;28;20280;-79
2023/05/01 07:02:07;;;;;;;4.10;1.63;;;;;;;;;;5066964;28;20288;-79
2023/05/01 07:04:32;;;;;;;5.43;2.13;;;;;;;;;;5049622;28;20293;-79
2023/05/01 07:06:58;;;;;;;4.15;1.55;;;;;;;;;;5070474;28;20327;-79
2023/05/01 07:09:23;;;;;;;4.13;1.50;;;;;;;;;;5068020;28;20025;-79
2023/05/01 07:11:48;;;;;;;3.03;1.30;;;;;;;;;;5069928;28;20024;-79
2023/05/01 07:14:13;;;;;;;4.80;1.70;;;;;;;;;;5070845;28;20028;-79
2023/05/01 07:16:39;;;;;;;3.60;1.38;;;;;;;;;;5071617;28;20048;-79
2023/05/01 07:19:04;;;;;;;3.17;1.38;;;;;;;;;;5064787;28;20433;-79
2023/05/01 07:21:31;;;;;;;3.97;1.67;;;;;;;;;;5068786;28;20016;-79
2023/05/01 07:23:56;;;;;;;3.17;1.15;;;;;;;;;;5052791;28;20024;-79
2023/05/01 07:26:21;;;;;;;4.75;1.98;;;;;;;;;;5065280;28;20369;-80
2023/05/01 07:28:46;;;;;;;8.05;3.28;;;;;;;;;;5068885;28;20029;-80
2023/05/01 07:31:12;;;;;;;2.88;1.42;;;;;;;;;;5065456;28;20028;-80
2023/05/01 07:33:37;;;;;;;3.45;1.40;;;;;;;;;;5070731;28;20020;-79
2023/05/01 07:36:03;;;;;;;3.23;1.27;;;;;;;;;;5067072;28;20020;-79
2023/05/01 07:38:28;;;;;;;3.22;1.42;;;;;;;;;;5070224;28;20287;-79
2023/05/01 07:40:54;;;;;;;3.58;0.98;;;;;;;;;;5064028;28;20106;-80
2023/05/01 07:43:20;;;;;;;2.65;1.38;;;;;;;;;;5044623;28;20032;-80
2023/05/01 07:45:56;;;;;;;1.83;1.17;;;;;;;;;;5068966;28;20027;-80
2023/05/01 07:48:21;;;;;;;2.45;1.38;;;;;;;;;;5065448;28;20112;-80
2023/05/01 07:50:46;;;;;;;4.55;1.73;;;;;;;;;;5065940;28;20103;-80
2023/05/01 07:53:11;;;;;;;2.00;1.10;;;;;;;;;;5066527;28;20087;-80
2023/05/01 07:55:37;;;;;;;2.75;1.40;;;;;;;;;;5061888;28;20017;-80
2023/05/01 07:58:02;;;;;;;3.15;1.13;;;;;;;;;;5067435;28;20376;-80
2023/05/01 08:00:27;;;;;;;3.27;1.63;;;;;;;;;;5065145;28;20020;-80
2023/05/01 08:02:53;;;;;;;3.45;1.38;;;;;;;;;;5067705;28;20820;-80
2023/05/01 08:05:18;;;;;;;5.65;1.73;;;;;;;;;;5068934;28;20016;-80
2023/05/01 08:07:43;;;;;;;2.93;1.27;;;;;;;;;;5069630;28;20027;-80
2023/05/01 08:10:09;;;;;;;3.28;1.20;;;;;;;;;;5063837;28;20275;-81
2023/05/01 08:12:34;;;;;;;3.55;1.33;;;;;;;;;;5047697;28;20021;-80
2023/05/01 08:15:00;;;;;;;2.53;1.25;;;;;;;;;;5069004;28;20024;-81
2023/05/01 08:17:25;;;;;;;4.15;1.55;;;;;;;;;;5069592;28;20048;-81
2023/05/01 08:19:52;;;;;;;2.13;0.97;;;;;;;;;;5065611;28;20131;-81
2023/05/01 08:22:17;;;;;;;3.65;1.15;;;;;;;;;;5068648;28;20285;-81
2023/05/01 08:24:43;;;;;;;2.73;1.47;;;;;;;;;;5070799;28;20035;-81
2023/05/01 08:27:08;;;;;;;2.15;1.50;;;;;;;;;;5069730;28;20276;-81
2023/05/01 08:29:33;;;;;;;3.83;1.50;;;;;;;;;;5060712;28;20012;-81
2023/05/01 08:31:58;;;;;;;4.20;1.73;;;;;;;;;;5068158;28;20031;-82
2023/05/01 08:34:24;;;;;;;5.07;1.60;;;;;;;;;;5083124;28;20032;-81
2023/05/01 08:36:49;;;;;;;18.93;2.37;;;;;;;;;;5069610;28;20284;-81
2023/05/01 08:39:14;;;;;;;1.83;1.20;;;;;;;;;;5066764;28;20347;-81
2023/05/01 08:41:43;;;;;;;2.40;1.20;;;;;;;;;;5045813;28;20544;-81
2023/05/01 08:44:09;;;;;;;3.95;1.50;;;;;;;;;;5063938;28;20364;-81
2023/05/01 08:46:57;;;;;;;2.95;1.45;;;;;;;;;;5070590;28;20040;-81
2023/05/01 08:49:22;;;;;;;4.13;1.40;;;;;;;;;;5065913;28;20059;-82
2023/05/01 08:51:49;;;;;;;3.55;1.10;;;;;;;;;;5068850;28;20012;-82
2023/05/01 08:54:15;;;;;;;11.82;1.70;;;;;;;;;;5065987;28;20017;-81
2023/05/01 08:56:42;;;;;;;6.30;1.88;;;;;;;;;;5071067;28;20023;-82
2023/05/01 08:59:08;;;;;;;14.70;1.98;;;;;;;;;;5065077;28;20056;-82
2023/05/01 09:01:34;;;;;;;5.55;1.33;;;;;;;;;;5062925;28;20059;-81
2023/05/01 09:04:01;;;;;;;8.98;2.20;;;;;;;;;;5062088;28;20040;-81
2023/05/01 09:06:28;;;;;;;4.72;1.85;;;;;;;;;;5067626;28;20503;-79
2023/05/01 09:08:53;;;;;;;4.72;1.60;;;;;;;;;;5069513;28;20119;-82
2023/05/01 09:11:18;;;;;;;7.33;1.10;;;;;;;;;;5070995;28;20085;-82
2023/05/01 09:13:44;;;;;;;6.45;1.65;;;;;;;;;;5073155;28;20265;-82
2023/05/01 09:16:09;;;;;;;2.40;1.17;;;;;;;;;;5064112;28;20032;-82
2023/05/01 09:18:35;;;;;;;2.78;1.17;;;;;;;;;;5066954;28;20016;-80
2023/05/01 09:21:00;;;;;;;4.63;1.40;;;;;;;;;;5070396;28;20039;-79
2023/05/01 09:23:26;;;;;;;3.22;1.25;;;;;;;;;;5068621;28;20089;-78
2023/05/01 09:25:52;;;;;;;3.13;1.27;;;;;;;;;;5072505;28;20016;-78
2023/05/01 09:28:17;;;;;;;3.60;1.38;;;;;;;;;;5072157;28;20025;-78
2023/05/01 09:30:43;;;;;;;5.03;1.30;;;;;;;;;;5060843;28;20024;-79
2023/05/01 09:33:09;;;;;;;7.82;1.63;;;;;;;;;;5057014;28;20755;-80
2023/05/01 09:35:47;;;;;;;6.22;1.70;;;;;;;;;;5068197;28;20028;-82
2023/05/01 09:38:16;;;;;;;5.60;2.20;;;;;;;;;;5070961;28;20035;-82
2023/05/01 09:40:41;;;;;;;6.35;2.53;;;;;;;;;;5061196;28;20028;-83
2023/05/01 09:43:06;;;;;;;7.37;2.33;;;;;;;;;;5067320;28;20036;-89
2023/05/01 09:45:32;;;;;;;13.45;2.28;;;;;;;;;;5075097;28;20280;-91
2023/05/01 09:48:09;;;;;;;10.70;2.53;;;;;;;;;;5067554;28;20535;-90
2023/05/01 09:50:34;;;;;;;12.60;3.45;;;;;;;;;;5081962;28;20305;-84
2023/05/01 09:53:00;;;;;;;11.43;3.20;;;;;;;;;;5069723;28;20029;-89
2023/05/01 09:55:25;;;;;;;13.75;4.15;;;;;;;;;;5071989;28;20666;-87
2023/05/01 09:57:51;;;;;;;10.40;4.00;;;;;;;;;;5070140;28;20113;-86
2023/05/01 10:00:19;;;;;;;11.45;4.55;;;;;;;;;;5069195;28;20028;-84
2023/05/01 10:02:45;;;;;;;10.23;4.60;;;;;;;;;;5071407;28;20059;-90
2023/05/01 10:05:11;;;;;;;8.77;5.78;;;;;;;;;;5072752;28;20027;-89
2023/05/01 10:07:36;;;;;;;9.82;5.05;;;;;;;;;;5072269;28;20107;-93
2023/05/01 10:10:15;;;;;;;6.18;4.25;;;;;;;;;;5068834;28;20455;-89
2023/05/01 10:12:40;;;;;;;6.90;4.13;;;;;;;;;;5067063;28;20021;-84
2023/05/01 10:15:06;;;;;;;4.73;2.97;;;;;;;;;;5067385;28;20017;-85
2023/05/01 10:17:31;;;;;;;8.52;2.97;;;;;;;;;;5072892;28;20032;-83
2023/05/01 10:19:57;;;;;;;5.05;2.78;;;;;;;;;;5073677;28;20024;-85
2023/05/01 10:22:22;;;;;;;6.67;2.90;;;;;;;;;;5069161;28;20025;-89
2023/05/01 10:24:47;;;;;;;4.57;2.22;;;;;;;;;;5067449;28;20305;-83
2023/05/01 10:27:13;;;;;;;4.15;2.17;;;;;;;;;;5071090;28;20013;-83
2023/05/01 10:29:41;;;;;;;4.82;2.22;;;;;;;;;;5070879;28;20025;-85
2023/05/01 10:32:07;;;;;;;5.20;1.90;;;;;;;;;;5073308;28;20024;-88
2023/05/01 10:34:37;;;;;;;4.53;2.15;;;;;;;;;;5071360;28;20427;-89
2023/05/01 10:37:05;;;;;;;6.35;1.77;;;;;;;;;;5068118;28;20591;-87
2023/05/01 10:39:35;;;;;;;5.53;1.95;;;;;;;;;;5049392;28;20390;-84
2023/05/01 10:42:10;;;;;;;3.55;1.70;;;;;;;;;;5071794;28;20548;-85
2023/05/01 10:44:35;;;;;;;7.32;1.58;;;;;;;;;;5068971;28;20021;-84
2023/05/01 10:47:21;;;;;;;6.32;1.85;;;;;;;;;;5072004;28;20024;-84
2023/05/01 10:50:08;;;;;;;6.50;2.50;;;;;;;;;;5055646;28;20040;-85
2023/05/01 10:52:52;;;;;;;9.57;2.95;;;;;;;;;;5067916;28;20538;-85
2023/05/01 10:55:36;;;;;;;4.38;1.33;;;;;;;;;;5068581;28;20032;-84
2023/05/01 10:58:01;;;;;;;10.52;2.35;;;;;;;;;;5070692;28;20025;-84
2023/05/01 11:00:26;;;;;;;6.37;1.60;;;;;;;;;;5070668;28;20031;-85
2023/05/01 11:03:11;;;;;;;13.75;2.05;;;;;;;;;;5070534;28;20339;-84
2023/05/01 11:05:55;;;;;;;7.30;2.00;;;;;;;;;;5070625;28;20013;-84
2023/05/01 11:08:30;;;;;;;5.13;2.08;;;;;;;;;;5065739;28;20023;-80
2023/05/01 11:10:55;;;;;;;9.75;1.80;;;;;;;;;;5069718;28;20019;-80
2023/05/01 11:13:40;;;;;;;9.38;2.50;;;;;;;;;;5068983;28;20024;-81
2023/05/01 11:16:25;;;;;;;15.30;2.60;;;;;;;;;;5069626;28;20120;-81
2023/05/01 11:18:51;;;;;;;8.32;2.15;;;;;;;;;;5063592;28;20074;-81
2023/05/01 11:21:16;;;;;;;3.63;1.10;;;;;;;;;;5068884;28;20383;-81
2023/05/01 11:23:45;;;;;;;12.85;1.05;;;;;;;;;;5071508;28;20774;-86
2023/05/01 11:26:11;;;;;;;5.25;1.20;;;;;;;;;;5074173;28;20035;-82
2023/05/01 11:28:37;;;;;;;6.93;1.50;;;;;;;;;;5063871;28;20024;-81
2023/05/01 11:31:02;;;;;;;9.63;1.52;;;;;;;;;;5069707;28;20478;-82
2023/05/01 11:33:28;;;;;;;6.00;1.45;;;;;;;;;;5072472;28;20033;-82
2023/05/01 11:35:57;;;;;;;5.72;1.30;;;;;;;;;;5071778;28;20026;-82
2023/05/01 11:38:23;;;;;;;6.13;1.20;;;;;;;;;;5069386;28;20063;-82
2023/05/01 11:40:53;;;;;;;6.97;1.30;;;;;;;;;;5068109;28;20021;-82
2023/05/01 11:43:18;;;;;;;13.40;1.23;;;;;;;;;;5072024;28;20028;-84
2023/05/01 11:45:43;;;;;;;6.00;1.20;;;;;;;;;;5052946;28;20379;-83
2023/05/01 11:48:15;;;;;;;8.68;1.48;;;;;;;;;;5068974;28;20016;-82
2023/05/01 11:50:40;;;;;;;6.85;0.57;;;;;;;;;;5064570;28;20039;-83
2023/05/01 11:53:17;;;;;;;3.13;1.02;;;;;;;;;;5070896;28;20471;-82
2023/05/01 11:55:43;;;;;;;5.82;0.70;;;;;;;;;;5070361;28;20031;-82
2023/05/01 11:58:08;;;;;;;11.13;0.82;;;;;;;;;;5071811;28;20020;-81
2023/05/01 12:00:36;;;;;;;5.57;0.80;;;;;;;;;;5070756;28;20051;-81
2023/05/01 12:03:01;;;;;;;9.60;0.60;;;;;;;;;;5067985;28;20115;-81
2023/05/01 12:05:27;;;;;;;1.25;0.35;;;;;;;;;;5071274;28;20538;-80
2023/05/01 12:08:11;;;;;;;10.60;1.00;;;;;;;;;;5071155;28;20020;-81
2023/05/01 12:10:37;;;;;;;1.88;0.70;;;;;;;;;;5070330;28;20021;-81
2023/05/01 12:13:03;;;;;;;1.67;0.70;;;;;;;;;;5071481;28;20387;-81
2023/05/01 12:15:29;;;;;;;4.50;0.63;;;;;;;;;;5071536;28;20032;-81
2023/05/01 12:17:55;;;;;;;3.15;0.60;;;;;;;;;;5070339;28;20020;-80
2023/05/01 12:20:37;;;;;;;0.98;0.40;;;;;;;;;;5071457;28;20039;-80
2023/05/01 12:23:04;;;;;;;2.95;0.77;;;;;;;;;;5052701;28;20500;-81
2023/05/01 12:25:30;;;;;;;0.70;0.40;;;;;;;;;;5071887;28;20141;-81
2023/05/01 12:27:56;;;;;;;1.85;0.70;;;;;;;;;;5071914;28;20023;-81
2023/05/01 12:30:25;;;;;;;2.55;0.60;;;;;;;;;;5071840;28;20091;-81
2023/05/01 12:32:51;;;;;;;1.45;0.50;;;;;;;;;;5071943;28;20108;-80
2023/05/01 12:35:16;;;;;;;5.20;0.47;;;;;;;;;;5071684;28;20091;-80
2023/05/01 12:37:42;;;;;;;1.17;0.38;;;;;;;;;;5070841;28;20074;-80
2023/05/01 12:40:11;;;;;;;3.55;0.75;;;;;;;;;;5070349;28;20123;-81
2023/05/01 12:42:37;;;;;;;3.80;0.57;;;;;;;;;;5071571;28;20020;-80
2023/05/01 12:45:02;;;;;;;3.50;1.33;;;;;;;;;;5071688;28;20043;-80
2023/05/01 12:47:34;;;;;;;0.85;0.60;;;;;;;;;;5071676;28;20017;-80
2023/05/01 12:50:01;;;;;;;1.48;0.77;;;;;;;;;;5071636;28;20119;-80
2023/05/01 12:52:26;;;;;;;3.00;0.98;;;;;;;;;;5071658;28;20021;-81
2023/05/01 12:55:00;;;;;;;0.60;0.50;;;;;;;;;;5070313;28;20501;-80
2023/05/01 12:57:26;;;;;;;1.50;0.57;;;;;;;;;;5071363;28;20028;-81
2023/05/01 12:59:56;;;;;;;1.40;0.60;;;;;;;;;;5075379;28;20024;-80
2023/05/01 13:02:28;;;;;;;1.03;0.57;;;;;;;;;;5075653;28;20035;-80
2023/05/01 13:05:03;;;;;;;3.22;0.30;;;;;;;;;;5075870;28;20028;-80
2023/05/01 13:07:29;;;;;;;0.82;0.45;;;;;;;;;;5075470;28;20026;-80
2023/05/01 13:09:56;;;;;;;2.33;0.47;;;;;;;;;;5074147;28;20025;-81
2023/05/01 13:12:22;;;;;;;2.15;0.32;;;;;;;;;;5075517;28;20042;-81
2023/05/01 13:14:47;;;;;;;0.80;0.30;;;;;;;;;;5075916;28;20017;-80
2023/05/01 13:17:20;;;;;;;1.08;0.50;;;;;;;;;;5075404;28;20035;-80
2023/05/01 13:19:51;;;;;;;1.23;0.60;;;;;;;;;;5075478;28;20035;-80
2023/05/01 13:22:17;;;;;;;0.68;0.20;;;;;;;;;;5075215;28;20055;-80
2023/05/01 13:24:43;;;;;;;0.80;0.32;;;;;;;;;;5074721;28;20055;-80
2023/05/01 13:27:09;;;;;;;0.93;0.47;;;;;;;;;;5075281;28;20390;-81
2023/05/01 13:29:35;;;;;;;0.85;0.47;;;;;;;;;;5075346;28;20016;-80
2023/05/01 13:32:02;;;;;;;1.10;0.43;;;;;;;;;;5075218;28;20021;-80
2023/05/01 13:34:31;;;;;;;1.27;0.40;;;;;;;;;;5074797;28;20070;-80
2023/05/01 13:36:57;;;;;;;1.05;0.40;;;;;;;;;;5075183;28;20108;-80
2023/05/01 13:39:23;;;;;;;1.25;0.40;;;;;;;;;;5073685;28;20441;-81
2023/05/01 13:41:49;;;;;;;2.00;0.30;;;;;;;;;;5056993;28;20546;-80
2023/05/01 13:44:15;;;;;;;1.17;0.30;;;;;;;;;;5057108;28;20237;-80
2023/05/01 13:46:43;;;;;;;1.35;0.40;;;;;;;;;;5074867;28;20380;-80
2023/05/01 13:49:09;;;;;;;0.35;0.22;;;;;;;;;;5074782;28;20487;-80
2023/05/01 13:51:36;;;;;;;0.68;0.38;;;;;;;;;;5074796;28;20032;-80
2023/05/01 13:54:02;;;;;;;0.50;0.30;;;;;;;;;;5073370;28;20024;-80
2023/05/01 13:56:28;;;;;;;0.25;0.20;;;;;;;;;;5073341;28;20039;-80
2023/05/01 13:58:53;;;;;;;1.00;0.32;;;;;;;;;;5074404;28;20390;-80
2023/05/01 14:01:19;;;;;;;1.90;0.40;;;;;;;;;;5074776;28;20020;-80
2023/05/01 14:03:44;;;;;;;0.55;0.20;;;;;;;;;;5074695;28;20334;-80
2023/05/01 14:06:28;;;;;;;0.50;0.30;;;;;;;;;;5074627;28;20418;-81
2023/05/01 14:08:56;;;;;;;2.20;0.40;;;;;;;;;;5056426;28;20483;-80
2023/05/01 14:11:21;;;;;;;0.77;0.50;;;;;;;;;;5054708;28;20379;-80
2023/05/01 14:13:49;;;;;;;1.20;0.30;;;;;;;;;;5074582;28;20138;-80
2023/05/01 14:16:24;;;;;;;0.50;0.43;;;;;;;;;;5074417;28;20020;-80
2023/05/01 14:18:53;;;;;;;0.80;0.32;;;;;;;;;;5074308;28;20470;-80
2023/05/01 14:21:18;;;;;;;0.35;0.20;;;;;;;;;;5074375;28;20020;-80
2023/05/01 14:23:44;;;;;;;0.77;0.20;;;;;;;;;;5074083;28;20032;-80
2023/05/01 14:26:10;;;;;;;0.30;0.13;;;;;;;;;;5072664;28;20095;-80
2023/05/01 14:28:45;;;;;;;0.20;0.20;;;;;;;;;;5074245;28;20025;-80
2023/05/01 14:31:28;;;;;;;0.70;0.30;;;;;;;;;;5074077;28;20096;-80
2023/05/01 14:33:56;;;;;;;1.33;0.32;;;;;;;;;;5055919;28;20023;-80
2023/05/01 14:36:21;;;;;;;0.80;0.30;;;;;;;;;;5074026;28;20021;-80
2023/05/01 14:38:48;;;;;;;0.33;0.20;;;;;;;;;;5074050;28;20393;-80
2023/05/01 14:41:13;;;;;;;0.52;0.30;;;;;;;;;;5072908;28;20273;-80
2023/05/01 14:43:40;;;;;;;0.52;0.20;;;;;;;;;;5072416;28;20033;-80